METAR for YPKS provided by aerobaticsweb.org
Current time: Sunday, 17 Oct, 2021, 02:49 UTC
(This may take a minute, please be patient)


No METAR for YPKS, get METAR for YSDU, 57 nm north of YPKS
The most recent METAR observation from YSDU, 57 nm north of YPKS in our system was generated at
2021/10/17 02:30
The observation is:
2021/10/17 02:30
YSDU 170230Z AUTO 24006KT 9999 // NCD 20/04 Q1015 RF00.0/000.0

24 Hour Summary

Time (UTC) Temperature
°C (°F)
Dew Point
°C (°F)
Pressure
Inches (hPa)
Wind
mph (km/h)
Weather
00:00 17 October 19 (66 ) 7 (44 ) 30.00 (1016) WSW 12 (19)
01:00 17 October 19 (66 ) 5 (41 ) 30.00 (1016) W 10 (16)
02:00 17 October 20 (68 ) 4 (39 ) 29.97 (1015) WSW 7 (11)
03:00 16 October 16 (60 ) 9 (48 ) 29.83 (1010) WSW 15 (24)
04:00 16 October 17 (62 ) 8 (46 ) 29.83 (1010) WSW 17 (27)
05:00 16 October 18 (64 ) 7 (44 ) 29.83 (1010) WSW 16 (26)
06:00 16 October 16 (60 ) 7 (44 ) 29.85 (1011) SW 15 (24)
07:00 16 October 16 (60 ) 6 (42 ) 29.85 (1011) WSW 16 (26)
08:00 16 October 12 (53 ) 6 (42 ) 29.88 (1012) WSW 8 (13)
09:00 16 October 12 (53 ) 7 (44 ) 29.91 (1013) W 5 (8)
10:00 16 October 10 (50 ) 6 (42 ) 29.91 (1013) W 3 (5)
11:00 16 October 11 (51 ) 7 (44 ) 29.94 (1014) WSW 3 (5)
12:00 16 October 9 (48 ) 7 (44 ) 29.94 (1014) W 5 (8) haze
13:00 16 October 9 (48 ) 7 (44 ) 29.94 (1014) W 5 (8)
14:00 16 October 8 (46 ) 7 (44 ) 29.94 (1014) Calm
15:00 16 October 8 (46 ) 7 (44 ) 29.91 (1013) NW 3 (5)
16:00 16 October 6 (42 ) 5 (41 ) 29.91 (1013) NW 5 (8)
17:00 16 October 4 (39 ) 3 (37 ) 29.94 (1014) Calm mist
18:00 16 October 5 (41 ) 4 (39 ) 29.94 (1014) Calm mist
19:00 16 October 4 (39 ) 3 (37 ) 29.97 (1015) Calm mist
20:00 16 October 7 (44 ) 5 (41 ) 30.00 (1016) ENE 2 (3) fog
21:00 16 October 12 (53 ) 9 (48 ) 30.00 (1016) E 3 (5)
22:00 16 October 15 (59 ) 9 (48 ) 30.03 (1017) ESE 3 (5)
23:00 16 October 17 (62 ) 7 (44 ) 30.03 (1017) NW 5 (8)
The information presented here is taken from products produced by the U.S. National Weather Service and other national and international agencies. Landings.com does not present this as official information. Please refer to official weather briefings for flight critical information.


access provided by Dr. Guenther Eichhorn at aerobaticsweb.org